sensor_id;sensor_type;location;lat;lon;timestamp;P1;durP1;ratioP1;P2;durP2;ratioP2
21729;SDS011;11027;51.030;13.812;2023-03-21T00:01:06;17.33;;;12.45;;
21729;SDS011;11027;51.030;13.812;2023-03-21T00:03:31;16.70;;;11.55;;
21729;SDS011;11027;51.030;13.812;2023-03-21T00:05:58;17.58;;;13.25;;
21729;SDS011;11027;51.030;13.812;2023-03-21T00:08:28;16.70;;;12.85;;
21729;SDS011;11027;51.030;13.812;2023-03-21T00:10:54;17.77;;;11.45;;
21729;SDS011;11027;51.030;13.812;2023-03-21T00:13:21;16.45;;;11.73;;
21729;SDS011;11027;51.030;13.812;2023-03-21T00:15:46;14.35;;;10.70;;
21729;SDS011;11027;51.030;13.812;2023-03-21T00:18:15;14.27;;;10.45;;
21729;SDS011;11027;51.030;13.812;2023-03-21T00:20:41;14.95;;;11.20;;
21729;SDS011;11027;51.030;13.812;2023-03-21T00:23:11;13.07;;;10.13;;
21729;SDS011;11027;51.030;13.812;2023-03-21T00:25:36;15.50;;;11.60;;
21729;SDS011;11027;51.030;13.812;2023-03-21T00:28:02;16.13;;;11.57;;
21729;SDS011;11027;51.030;13.812;2023-03-21T00:30:27;15.15;;;11.15;;
21729;SDS011;11027;51.030;13.812;2023-03-21T00:32:52;18.30;;;12.38;;
21729;SDS011;11027;51.030;13.812;2023-03-21T00:35:18;15.43;;;12.15;;
21729;SDS011;11027;51.030;13.812;2023-03-21T00:37:43;16.33;;;12.60;;
21729;SDS011;11027;51.030;13.812;2023-03-21T00:40:09;16.75;;;12.68;;
21729;SDS011;11027;51.030;13.812;2023-03-21T00:42:35;19.80;;;12.73;;
21729;SDS011;11027;51.030;13.812;2023-03-21T00:45:01;17.85;;;12.80;;
21729;SDS011;11027;51.030;13.812;2023-03-21T00:47:27;17.15;;;12.98;;
21729;SDS011;11027;51.030;13.812;2023-03-21T00:49:52;14.88;;;12.13;;
21729;SDS011;11027;51.030;13.812;2023-03-21T00:52:18;19.15;;;12.60;;
21729;SDS011;11027;51.030;13.812;2023-03-21T00:54:43;18.35;;;12.82;;
21729;SDS011;11027;51.030;13.812;2023-03-21T00:57:08;18.58;;;12.60;;
21729;SDS011;11027;51.030;13.812;2023-03-21T00:59:34;19.85;;;13.10;;
21729;SDS011;11027;51.030;13.812;2023-03-21T01:01:59;16.10;;;12.80;;
21729;SDS011;11027;51.030;13.812;2023-03-21T01:04:25;17.65;;;13.55;;
21729;SDS011;11027;51.030;13.812;2023-03-21T01:06:51;19.25;;;13.73;;
21729;SDS011;11027;51.030;13.812;2023-03-21T01:09:18;19.83;;;14.43;;
21729;SDS011;11027;51.030;13.812;2023-03-21T01:11:45;18.90;;;14.52;;
21729;SDS011;11027;51.030;13.812;2023-03-21T01:14:12;24.85;;;15.27;;
21729;SDS011;11027;51.030;13.812;2023-03-21T01:16:39;25.77;;;16.15;;
21729;SDS011;11027;51.030;13.812;2023-03-21T01:19:05;21.77;;;16.15;;
21729;SDS011;11027;51.030;13.812;2023-03-21T01:21:31;27.52;;;18.02;;
21729;SDS011;11027;51.030;13.812;2023-03-21T01:23:57;24.92;;;18.13;;
21729;SDS011;11027;51.030;13.812;2023-03-21T01:26:22;26.13;;;18.67;;
21729;SDS011;11027;51.030;13.812;2023-03-21T01:28:48;28.13;;;19.88;;
21729;SDS011;11027;51.030;13.812;2023-03-21T01:31:15;27.67;;;19.50;;
21729;SDS011;11027;51.030;13.812;2023-03-21T01:33:42;25.92;;;19.27;;
21729;SDS011;11027;51.030;13.812;2023-03-21T01:36:29;30.40;;;20.00;;
21729;SDS011;11027;51.030;13.812;2023-03-21T01:38:53;28.67;;;19.70;;
21729;SDS011;11027;51.030;13.812;2023-03-21T01:41:26;25.77;;;18.60;;
21729;SDS011;11027;51.030;13.812;2023-03-21T01:43:55;29.77;;;19.58;;
21729;SDS011;11027;51.030;13.812;2023-03-21T01:49:06;25.98;;;19.98;;
21729;SDS011;11027;51.030;13.812;2023-03-21T01:51:41;26.23;;;18.90;;
21729;SDS011;11027;51.030;13.812;2023-03-21T01:54:13;29.45;;;20.38;;
21729;SDS011;11027;51.030;13.812;2023-03-21T01:56:41;23.17;;;18.23;;
21729;SDS011;11027;51.030;13.812;2023-03-21T01:59:11;27.98;;;20.15;;
21729;SDS011;11027;51.030;13.812;2023-03-21T02:01:45;24.10;;;19.27;;
21729;SDS011;11027;51.030;13.812;2023-03-21T02:04:11;25.10;;;19.75;;
21729;SDS011;11027;51.030;13.812;2023-03-21T02:09:08;28.52;;;20.30;;
21729;SDS011;11027;51.030;13.812;2023-03-21T02:11:38;27.25;;;19.65;;
21729;SDS011;11027;51.030;13.812;2023-03-21T02:14:03;27.15;;;20.02;;
21729;SDS011;11027;51.030;13.812;2023-03-21T02:35:07;26.75;;;19.63;;
21729;SDS011;11027;51.030;13.812;2023-03-21T02:37:44;27.08;;;20.80;;
21729;SDS011;11027;51.030;13.812;2023-03-21T02:40:17;29.83;;;20.70;;
21729;SDS011;11027;51.030;13.812;2023-03-21T02:45:41;26.90;;;20.60;;
21729;SDS011;11027;51.030;13.812;2023-03-21T02:48:14;25.73;;;19.88;;
21729;SDS011;11027;51.030;13.812;2023-03-21T02:50:57;28.88;;;20.23;;
21729;SDS011;11027;51.030;13.812;2023-03-21T02:53:25;29.58;;;20.85;;
21729;SDS011;11027;51.030;13.812;2023-03-21T02:55:55;30.52;;;21.13;;
21729;SDS011;11027;51.030;13.812;2023-03-21T02:58:23;27.55;;;20.85;;
21729;SDS011;11027;51.030;13.812;2023-03-21T03:00:49;28.83;;;22.10;;
21729;SDS011;11027;51.030;13.812;2023-03-21T03:03:19;25.55;;;20.92;;
21729;SDS011;11027;51.030;13.812;2023-03-21T03:05:47;29.23;;;21.75;;
21729;SDS011;11027;51.030;13.812;2023-03-21T03:13:45;26.02;;;19.27;;
21729;SDS011;11027;51.030;13.812;2023-03-21T03:16:39;25.40;;;19.45;;
21729;SDS011;11027;51.030;13.812;2023-03-21T03:19:26;23.70;;;18.80;;
21729;SDS011;11027;51.030;13.812;2023-03-21T03:22:16;24.73;;;19.92;;
21729;SDS011;11027;51.030;13.812;2023-03-21T03:27:26;26.23;;;19.73;;
21729;SDS011;11027;51.030;13.812;2023-03-21T03:29:57;26.90;;;19.95;;
21729;SDS011;11027;51.030;13.812;2023-03-21T03:32:30;26.05;;;20.23;;
21729;SDS011;11027;51.030;13.812;2023-03-21T03:35:09;28.15;;;20.27;;
21729;SDS011;11027;51.030;13.812;2023-03-21T03:37:37;31.75;;;20.85;;
21729;SDS011;11027;51.030;13.812;2023-03-21T03:42:47;26.48;;;20.58;;
21729;SDS011;11027;51.030;13.812;2023-03-21T03:45:15;28.42;;;20.08;;
21729;SDS011;11027;51.030;13.812;2023-03-21T03:47:52;25.58;;;19.63;;
21729;SDS011;11027;51.030;13.812;2023-03-21T03:50:33;28.35;;;20.85;;
21729;SDS011;11027;51.030;13.812;2023-03-21T03:53:51;30.25;;;20.63;;
21729;SDS011;11027;51.030;13.812;2023-03-21T03:55:59;30.27;;;22.23;;
21729;SDS011;11027;51.030;13.812;2023-03-21T03:58:26;26.42;;;20.45;;
21729;SDS011;11027;51.030;13.812;2023-03-21T04:00:53;25.85;;;20.83;;
21729;SDS011;11027;51.030;13.812;2023-03-21T04:03:19;29.85;;;20.90;;
21729;SDS011;11027;51.030;13.812;2023-03-21T04:05:45;30.38;;;21.67;;
21729;SDS011;11027;51.030;13.812;2023-03-21T04:08:12;27.95;;;21.17;;
21729;SDS011;11027;51.030;13.812;2023-03-21T04:10:38;32.75;;;21.52;;
21729;SDS011;11027;51.030;13.812;2023-03-21T04:13:04;29.95;;;21.60;;
21729;SDS011;11027;51.030;13.812;2023-03-21T04:15:30;28.00;;;21.77;;
21729;SDS011;11027;51.030;13.812;2023-03-21T04:17:55;30.77;;;21.83;;
21729;SDS011;11027;51.030;13.812;2023-03-21T04:20:21;28.33;;;21.65;;
21729;SDS011;11027;51.030;13.812;2023-03-21T04:22:46;29.13;;;21.98;;
21729;SDS011;11027;51.030;13.812;2023-03-21T04:25:12;30.63;;;22.45;;
21729;SDS011;11027;51.030;13.812;2023-03-21T04:27:38;29.25;;;21.77;;
21729;SDS011;11027;51.030;13.812;2023-03-21T04:30:03;30.42;;;22.63;;
21729;SDS011;11027;51.030;13.812;2023-03-21T04:32:30;27.83;;;21.55;;
21729;SDS011;11027;51.030;13.812;2023-03-21T04:34:57;29.10;;;21.02;;
21729;SDS011;11027;51.030;13.812;2023-03-21T04:37:23;28.77;;;22.45;;
21729;SDS011;11027;51.030;13.812;2023-03-21T04:39:49;30.25;;;23.45;;
21729;SDS011;11027;51.030;13.812;2023-03-21T04:42:15;27.73;;;21.33;;
21729;SDS011;11027;51.030;13.812;2023-03-21T04:44:45;30.33;;;21.75;;
21729;SDS011;11027;51.030;13.812;2023-03-21T04:47:11;27.38;;;21.48;;
21729;SDS011;11027;51.030;13.812;2023-03-21T04:49:37;31.58;;;22.58;;
21729;SDS011;11027;51.030;13.812;2023-03-21T04:52:03;30.40;;;22.60;;
21729;SDS011;11027;51.030;13.812;2023-03-21T04:54:28;28.85;;;21.92;;
21729;SDS011;11027;51.030;13.812;2023-03-21T04:56:53;28.73;;;21.50;;
21729;SDS011;11027;51.030;13.812;2023-03-21T04:59:19;26.17;;;21.38;;
21729;SDS011;11027;51.030;13.812;2023-03-21T05:01:45;28.85;;;22.52;;
21729;SDS011;11027;51.030;13.812;2023-03-21T05:04:11;29.75;;;23.90;;
21729;SDS011;11027;51.030;13.812;2023-03-21T05:06:37;31.98;;;23.48;;
21729;SDS011;11027;51.030;13.812;2023-03-21T05:09:04;28.38;;;23.05;;
21729;SDS011;11027;51.030;13.812;2023-03-21T05:11:31;29.70;;;22.95;;
21729;SDS011;11027;51.030;13.812;2023-03-21T05:13:57;32.47;;;23.02;;
21729;SDS011;11027;51.030;13.812;2023-03-21T05:16:23;31.70;;;23.33;;
21729;SDS011;11027;51.030;13.812;2023-03-21T05:18:53;31.60;;;22.58;;
21729;SDS011;11027;51.030;13.812;2023-03-21T05:21:19;34.63;;;22.92;;
21729;SDS011;11027;51.030;13.812;2023-03-21T05:23:45;32.45;;;22.73;;
21729;SDS011;11027;51.030;13.812;2023-03-21T05:26:18;34.60;;;23.73;;
21729;SDS011;11027;51.030;13.812;2023-03-21T05:28:44;30.00;;;22.42;;
21729;SDS011;11027;51.030;13.812;2023-03-21T05:31:09;32.47;;;23.45;;
21729;SDS011;11027;51.030;13.812;2023-03-21T05:33:39;29.80;;;23.65;;
21729;SDS011;11027;51.030;13.812;2023-03-21T05:36:04;35.58;;;24.45;;
21729;SDS011;11027;51.030;13.812;2023-03-21T05:38:30;36.92;;;24.58;;
21729;SDS011;11027;51.030;13.812;2023-03-21T05:40:55;24.65;;;18.70;;
21729;SDS011;11027;51.030;13.812;2023-03-21T05:43:21;27.52;;;19.38;;
21729;SDS011;11027;51.030;13.812;2023-03-21T05:45:46;24.10;;;19.63;;
21729;SDS011;11027;51.030;13.812;2023-03-21T05:48:12;29.50;;;20.35;;
21729;SDS011;11027;51.030;13.812;2023-03-21T05:50:37;29.67;;;21.50;;
21729;SDS011;11027;51.030;13.812;2023-03-21T05:53:03;25.45;;;19.83;;
21729;SDS011;11027;51.030;13.812;2023-03-21T05:55:28;20.40;;;15.73;;
21729;SDS011;11027;51.030;13.812;2023-03-21T05:57:53;20.95;;;14.70;;
21729;SDS011;11027;51.030;13.812;2023-03-21T06:00:19;19.27;;;14.55;;
21729;SDS011;11027;51.030;13.812;2023-03-21T06:02:46;19.08;;;12.65;;
21729;SDS011;11027;51.030;13.812;2023-03-21T06:05:11;19.25;;;13.38;;
21729;SDS011;11027;51.030;13.812;2023-03-21T06:07:36;17.58;;;13.57;;
21729;SDS011;11027;51.030;13.812;2023-03-21T06:10:02;22.13;;;14.82;;
21729;SDS011;11027;51.030;13.812;2023-03-21T06:12:28;17.77;;;12.75;;
21729;SDS011;11027;51.030;13.812;2023-03-21T06:14:54;20.23;;;13.50;;
21729;SDS011;11027;51.030;13.812;2023-03-21T06:17:19;17.85;;;13.18;;
21729;SDS011;11027;51.030;13.812;2023-03-21T06:19:45;19.25;;;10.93;;
21729;SDS011;11027;51.030;13.812;2023-03-21T06:22:10;14.30;;;9.50;;
21729;SDS011;11027;51.030;13.812;2023-03-21T06:24:35;10.20;;;8.07;;
21729;SDS011;11027;51.030;13.812;2023-03-21T06:27:01;11.95;;;7.90;;
21729;SDS011;11027;51.030;13.812;2023-03-21T06:29:26;12.98;;;7.95;;
21729;SDS011;11027;51.030;13.812;2023-03-21T06:31:51;10.02;;;7.40;;
21729;SDS011;11027;51.030;13.812;2023-03-21T06:34:16;10.60;;;6.93;;
21729;SDS011;11027;51.030;13.812;2023-03-21T06:36:42;11.95;;;7.68;;
21729;SDS011;11027;51.030;13.812;2023-03-21T06:39:08;12.27;;;7.20;;
21729;SDS011;11027;51.030;13.812;2023-03-21T06:41:34;9.43;;;7.10;;
21729;SDS011;11027;51.030;13.812;2023-03-21T06:43:59;9.80;;;6.90;;
21729;SDS011;11027;51.030;13.812;2023-03-21T06:46:25;11.27;;;7.00;;
21729;SDS011;11027;51.030;13.812;2023-03-21T06:48:50;11.80;;;6.80;;
21729;SDS011;11027;51.030;13.812;2023-03-21T06:51:16;9.70;;;7.10;;
21729;SDS011;11027;51.030;13.812;2023-03-21T06:53:41;9.57;;;6.75;;
21729;SDS011;11027;51.030;13.812;2023-03-21T06:56:07;9.40;;;6.88;;
21729;SDS011;11027;51.030;13.812;2023-03-21T06:58:34;13.27;;;7.38;;
21729;SDS011;11027;51.030;13.812;2023-03-21T07:01:00;13.90;;;6.57;;
21729;SDS011;11027;51.030;13.812;2023-03-21T07:03:26;16.45;;;7.10;;
21729;SDS011;11027;51.030;13.812;2023-03-21T07:05:52;12.73;;;7.50;;
21729;SDS011;11027;51.030;13.812;2023-03-21T07:08:17;13.40;;;7.30;;
21729;SDS011;11027;51.030;13.812;2023-03-21T07:10:43;13.13;;;6.47;;
21729;SDS011;11027;51.030;13.812;2023-03-21T07:13:10;12.23;;;6.50;;
21729;SDS011;11027;51.030;13.812;2023-03-21T07:15:35;9.93;;;6.88;;
21729;SDS011;11027;51.030;13.812;2023-03-21T07:18:05;12.73;;;6.30;;
21729;SDS011;11027;51.030;13.812;2023-03-21T07:20:32;10.57;;;6.25;;
21729;SDS011;11027;51.030;13.812;2023-03-21T07:22:58;10.48;;;6.68;;
21729;SDS011;11027;51.030;13.812;2023-03-21T07:25:23;6.78;;;5.82;;
21729;SDS011;11027;51.030;13.812;2023-03-21T07:27:49;8.25;;;6.18;;
21729;SDS011;11027;51.030;13.812;2023-03-21T07:30:14;9.13;;;5.80;;
21729;SDS011;11027;51.030;13.812;2023-03-21T07:32:40;8.10;;;5.78;;
21729;SDS011;11027;51.030;13.812;2023-03-21T07:35:07;8.73;;;6.43;;
21729;SDS011;11027;51.030;13.812;2023-03-21T07:37:37;13.77;;;7.97;;
21729;SDS011;11027;51.030;13.812;2023-03-21T07:40:02;8.88;;;6.50;;
21729;SDS011;11027;51.030;13.812;2023-03-21T07:42:33;8.15;;;6.00;;
21729;SDS011;11027;51.030;13.812;2023-03-21T07:44:58;10.25;;;6.18;;
21729;SDS011;11027;51.030;13.812;2023-03-21T07:47:24;8.32;;;6.32;;
21729;SDS011;11027;51.030;13.812;2023-03-21T07:49:49;10.90;;;6.13;;
21729;SDS011;11027;51.030;13.812;2023-03-21T07:52:15;9.98;;;6.47;;
21729;SDS011;11027;51.030;13.812;2023-03-21T07:54:40;11.27;;;7.07;;
21729;SDS011;11027;51.030;13.812;2023-03-21T07:57:06;11.27;;;6.70;;
21729;SDS011;11027;51.030;13.812;2023-03-21T07:59:31;12.90;;;6.93;;
21729;SDS011;11027;51.030;13.812;2023-03-21T08:01:56;10.95;;;6.45;;
21729;SDS011;11027;51.030;13.812;2023-03-21T08:04:21;9.32;;;6.72;;
21729;SDS011;11027;51.030;13.812;2023-03-21T08:06:47;15.43;;;6.60;;
21729;SDS011;11027;51.030;13.812;2023-03-21T08:09:14;12.07;;;7.57;;
21729;SDS011;11027;51.030;13.812;2023-03-21T08:11:39;15.45;;;6.95;;
21729;SDS011;11027;51.030;13.812;2023-03-21T08:14:05;11.02;;;6.93;;
21729;SDS011;11027;51.030;13.812;2023-03-21T08:16:30;11.95;;;7.32;;
21729;SDS011;11027;51.030;13.812;2023-03-21T08:18:55;9.52;;;6.93;;
21729;SDS011;11027;51.030;13.812;2023-03-21T08:21:21;12.00;;;6.50;;
21729;SDS011;11027;51.030;13.812;2023-03-21T08:23:46;10.65;;;7.03;;
21729;SDS011;11027;51.030;13.812;2023-03-21T08:26:11;11.88;;;6.70;;
21729;SDS011;11027;51.030;13.812;2023-03-21T08:28:39;10.20;;;6.53;;
21729;SDS011;11027;51.030;13.812;2023-03-21T08:31:06;11.38;;;6.63;;
21729;SDS011;11027;51.030;13.812;2023-03-21T08:33:34;10.85;;;6.80;;
21729;SDS011;11027;51.030;13.812;2023-03-21T08:36:00;12.35;;;6.82;;
21729;SDS011;11027;51.030;13.812;2023-03-21T08:38:26;11.60;;;6.80;;
21729;SDS011;11027;51.030;13.812;2023-03-21T08:40:54;10.23;;;6.40;;
21729;SDS011;11027;51.030;13.812;2023-03-21T08:43:19;9.52;;;6.55;;
21729;SDS011;11027;51.030;13.812;2023-03-21T08:45:45;11.25;;;6.57;;
21729;SDS011;11027;51.030;13.812;2023-03-21T08:48:10;9.98;;;5.75;;
21729;SDS011;11027;51.030;13.812;2023-03-21T08:50:35;11.05;;;6.85;;
21729;SDS011;11027;51.030;13.812;2023-03-21T08:53:01;8.63;;;6.28;;
21729;SDS011;11027;51.030;13.812;2023-03-21T08:55:26;9.93;;;6.50;;
21729;SDS011;11027;51.030;13.812;2023-03-21T08:57:51;7.82;;;5.72;;
21729;SDS011;11027;51.030;13.812;2023-03-21T09:00:17;12.05;;;5.85;;
21729;SDS011;11027;51.030;13.812;2023-03-21T09:02:45;10.13;;;5.88;;
21729;SDS011;11027;51.030;13.812;2023-03-21T09:05:12;9.18;;;5.78;;
21729;SDS011;11027;51.030;13.812;2023-03-21T09:07:38;10.43;;;6.35;;
21729;SDS011;11027;51.030;13.812;2023-03-21T09:10:04;9.60;;;6.15;;
21729;SDS011;11027;51.030;13.812;2023-03-21T09:12:31;11.23;;;6.20;;
21729;SDS011;11027;51.030;13.812;2023-03-21T09:14:57;10.15;;;5.50;;
21729;SDS011;11027;51.030;13.812;2023-03-21T09:17:22;11.65;;;5.65;;
21729;SDS011;11027;51.030;13.812;2023-03-21T09:19:48;9.25;;;5.97;;
21729;SDS011;11027;51.030;13.812;2023-03-21T09:22:14;9.73;;;6.18;;
21729;SDS011;11027;51.030;13.812;2023-03-21T09:24:42;8.40;;;5.50;;
21729;SDS011;11027;51.030;13.812;2023-03-21T09:27:09;8.82;;;5.20;;
21729;SDS011;11027;51.030;13.812;2023-03-21T09:29:35;9.15;;;5.63;;
21729;SDS011;11027;51.030;13.812;2023-03-21T09:32:00;7.15;;;4.95;;
21729;SDS011;11027;51.030;13.812;2023-03-21T09:34:26;15.68;;;5.40;;
21729;SDS011;11027;51.030;13.812;2023-03-21T09:36:52;11.00;;;5.30;;
21729;SDS011;11027;51.030;13.812;2023-03-21T09:39:20;9.85;;;5.45;;
21729;SDS011;11027;51.030;13.812;2023-03-21T09:44:50;9.30;;;4.93;;
21729;SDS011;11027;51.030;13.812;2023-03-21T09:47:24;7.90;;;4.97;;
21729;SDS011;11027;51.030;13.812;2023-03-21T09:50:14;7.80;;;4.82;;
21729;SDS011;11027;51.030;13.812;2023-03-21T09:52:52;7.50;;;4.80;;
21729;SDS011;11027;51.030;13.812;2023-03-21T09:55:23;9.93;;;5.18;;
21729;SDS011;11027;51.030;13.812;2023-03-21T09:58:03;8.20;;;4.47;;
21729;SDS011;11027;51.030;13.812;2023-03-21T10:00:56;8.73;;;5.38;;
21729;SDS011;11027;51.030;13.812;2023-03-21T10:03:29;8.90;;;4.85;;
21729;SDS011;11027;51.030;13.812;2023-03-21T10:05:59;6.07;;;4.20;;
21729;SDS011;11027;51.030;13.812;2023-03-21T10:08:33;7.20;;;4.15;;
21729;SDS011;11027;51.030;13.812;2023-03-21T10:11:03;7.93;;;4.75;;
21729;SDS011;11027;51.030;13.812;2023-03-21T10:13:37;8.55;;;4.80;;
21729;SDS011;11027;51.030;13.812;2023-03-21T10:16:14;6.22;;;4.10;;
21729;SDS011;11027;51.030;13.812;2023-03-21T10:18:42;5.50;;;3.70;;
21729;SDS011;11027;51.030;13.812;2023-03-21T10:21:10;7.35;;;4.03;;
21729;SDS011;11027;51.030;13.812;2023-03-21T10:23:41;9.07;;;4.53;;
21729;SDS011;11027;51.030;13.812;2023-03-21T10:26:07;5.38;;;4.18;;
21729;SDS011;11027;51.030;13.812;2023-03-21T10:28:34;8.73;;;4.57;;
21729;SDS011;11027;51.030;13.812;2023-03-21T10:31:02;6.75;;;5.13;;
21729;SDS011;11027;51.030;13.812;2023-03-21T10:33:32;11.52;;;6.68;;
21729;SDS011;11027;51.030;13.812;2023-03-21T10:36:01;8.68;;;4.78;;
21729;SDS011;11027;51.030;13.812;2023-03-21T10:38:29;6.32;;;4.97;;
21729;SDS011;11027;51.030;13.812;2023-03-21T10:40:55;6.78;;;4.28;;
21729;SDS011;11027;51.030;13.812;2023-03-21T10:45:52;9.40;;;4.25;;
21729;SDS011;11027;51.030;13.812;2023-03-21T10:48:19;8.85;;;3.90;;
21729;SDS011;11027;51.030;13.812;2023-03-21T10:50:46;7.78;;;3.75;;
21729;SDS011;11027;51.030;13.812;2023-03-21T10:53:20;7.13;;;3.88;;
21729;SDS011;11027;51.030;13.812;2023-03-21T10:55:51;5.47;;;3.50;;
21729;SDS011;11027;51.030;13.812;2023-03-21T10:58:21;6.85;;;3.45;;
21729;SDS011;11027;51.030;13.812;2023-03-21T11:00:55;7.35;;;3.65;;
21729;SDS011;11027;51.030;13.812;2023-03-21T11:03:26;5.67;;;4.20;;
21729;SDS011;11027;51.030;13.812;2023-03-21T11:05:55;4.55;;;3.20;;
21729;SDS011;11027;51.030;13.812;2023-03-21T11:08:25;6.00;;;3.20;;
21729;SDS011;11027;51.030;13.812;2023-03-21T11:13:23;5.20;;;4.07;;
21729;SDS011;11027;51.030;13.812;2023-03-21T11:18:22;3.97;;;2.60;;
21729;SDS011;11027;51.030;13.812;2023-03-21T11:20:55;5.50;;;2.90;;
21729;SDS011;11027;51.030;13.812;2023-03-21T11:23:26;3.88;;;2.47;;
21729;SDS011;11027;51.030;13.812;2023-03-21T11:25:54;4.13;;;2.40;;
21729;SDS011;11027;51.030;13.812;2023-03-21T11:28:23;6.80;;;2.72;;
21729;SDS011;11027;51.030;13.812;2023-03-21T11:30:53;3.45;;;2.50;;
21729;SDS011;11027;51.030;13.812;2023-03-21T11:33:21;6.03;;;2.65;;
21729;SDS011;11027;51.030;13.812;2023-03-21T11:36:51;3.15;;;2.55;;
21729;SDS011;11027;51.030;13.812;2023-03-21T11:38:47;2.85;;;2.53;;
21729;SDS011;11027;51.030;13.812;2023-03-21T11:41:21;2.97;;;2.30;;
21729;SDS011;11027;51.030;13.812;2023-03-21T11:43:52;2.72;;;2.30;;
21729;SDS011;11027;51.030;13.812;2023-03-21T11:46:21;2.97;;;2.28;;
21729;SDS011;11027;51.030;13.812;2023-03-21T11:48:51;3.13;;;2.60;;
21729;SDS011;11027;51.030;13.812;2023-03-21T11:51:26;3.42;;;2.40;;
21729;SDS011;11027;51.030;13.812;2023-03-21T11:56:49;2.28;;;2.00;;
21729;SDS011;11027;51.030;13.812;2023-03-21T11:59:27;3.78;;;2.30;;
21729;SDS011;11027;51.030;13.812;2023-03-21T12:04:52;3.33;;;2.05;;
21729;SDS011;11027;51.030;13.812;2023-03-21T12:10:29;3.42;;;2.03;;
21729;SDS011;11027;51.030;13.812;2023-03-21T12:15:49;3.78;;;2.00;;
21729;SDS011;11027;51.030;13.812;2023-03-21T12:18:44;4.13;;;2.10;;
21729;SDS011;11027;51.030;13.812;2023-03-21T12:21:19;3.20;;;2.05;;
21729;SDS011;11027;51.030;13.812;2023-03-21T12:23:59;2.95;;;1.95;;
21729;SDS011;11027;51.030;13.812;2023-03-21T12:32:03;1.98;;;1.70;;
21729;SDS011;11027;51.030;13.812;2023-03-21T12:40:49;3.60;;;2.00;;
21729;SDS011;11027;51.030;13.812;2023-03-21T12:46:19;2.38;;;2.17;;
21729;SDS011;11027;51.030;13.812;2023-03-21T12:48:49;4.32;;;2.50;;
21729;SDS011;11027;51.030;13.812;2023-03-21T12:51:20;2.05;;;1.90;;
21729;SDS011;11027;51.030;13.812;2023-03-21T12:54:01;3.35;;;2.00;;
21729;SDS011;11027;51.030;13.812;2023-03-21T12:56:56;4.07;;;2.20;;
21729;SDS011;11027;51.030;13.812;2023-03-21T13:01:59;3.85;;;1.88;;
21729;SDS011;11027;51.030;13.812;2023-03-21T13:04:48;2.53;;;1.98;;
21729;SDS011;11027;51.030;13.812;2023-03-21T13:07:21;2.65;;;1.83;;
21729;SDS011;11027;51.030;13.812;2023-03-21T13:09:49;7.50;;;2.38;;
21729;SDS011;11027;51.030;13.812;2023-03-21T13:12:24;7.78;;;2.30;;
21729;SDS011;11027;51.030;13.812;2023-03-21T13:18:17;2.55;;;1.88;;
21729;SDS011;11027;51.030;13.812;2023-03-21T13:23:31;4.13;;;1.90;;
21729;SDS011;11027;51.030;13.812;2023-03-21T13:25:58;4.43;;;2.15;;
21729;SDS011;11027;51.030;13.812;2023-03-21T13:28:27;3.00;;;2.00;;
21729;SDS011;11027;51.030;13.812;2023-03-21T13:33:47;3.28;;;1.77;;
21729;SDS011;11027;51.030;13.812;2023-03-21T13:36:14;3.40;;;1.90;;
21729;SDS011;11027;51.030;13.812;2023-03-21T13:38:49;2.33;;;2.00;;
21729;SDS011;11027;51.030;13.812;2023-03-21T13:41:17;2.17;;;1.95;;
21729;SDS011;11027;51.030;13.812;2023-03-21T13:46:36;4.50;;;1.80;;
21729;SDS011;11027;51.030;13.812;2023-03-21T13:51:50;3.63;;;2.00;;
21729;SDS011;11027;51.030;13.812;2023-03-21T13:54:20;2.95;;;1.70;;
21729;SDS011;11027;51.030;13.812;2023-03-21T13:59:37;1.98;;;1.77;;
21729;SDS011;11027;51.030;13.812;2023-03-21T14:04:36;4.93;;;2.10;;
21729;SDS011;11027;51.030;13.812;2023-03-21T14:07:06;3.42;;;2.03;;
21729;SDS011;11027;51.030;13.812;2023-03-21T14:09:37;5.00;;;2.20;;
21729;SDS011;11027;51.030;13.812;2023-03-21T14:12:06;5.53;;;2.45;;
21729;SDS011;11027;51.030;13.812;2023-03-21T14:17:12;3.38;;;2.00;;
21729;SDS011;11027;51.030;13.812;2023-03-21T14:19:40;3.47;;;1.70;;
21729;SDS011;11027;51.030;13.812;2023-03-21T14:22:09;5.88;;;1.83;;
21729;SDS011;11027;51.030;13.812;2023-03-21T14:27:02;1.75;;;1.60;;
21729;SDS011;11027;51.030;13.812;2023-03-21T14:29:30;4.03;;;1.80;;
21729;SDS011;11027;51.030;13.812;2023-03-21T14:31:58;5.40;;;1.85;;
21729;SDS011;11027;51.030;13.812;2023-03-21T14:34:24;5.05;;;1.98;;
21729;SDS011;11027;51.030;13.812;2023-03-21T14:36:51;2.38;;;1.73;;
21729;SDS011;11027;51.030;13.812;2023-03-21T14:39:20;2.83;;;1.70;;
21729;SDS011;11027;51.030;13.812;2023-03-21T14:41:52;3.17;;;1.67;;
21729;SDS011;11027;51.030;13.812;2023-03-21T14:47:06;2.88;;;1.70;;
21729;SDS011;11027;51.030;13.812;2023-03-21T14:50:05;2.22;;;1.83;;
21729;SDS011;11027;51.030;13.812;2023-03-21T14:52:34;2.97;;;1.60;;
21729;SDS011;11027;51.030;13.812;2023-03-21T14:54:59;1.70;;;1.58;;
21729;SDS011;11027;51.030;13.812;2023-03-21T14:57:28;3.58;;;1.80;;
21729;SDS011;11027;51.030;13.812;2023-03-21T14:59:57;3.92;;;1.95;;
21729;SDS011;11027;51.030;13.812;2023-03-21T15:02:27;3.72;;;1.50;;
21729;SDS011;11027;51.030;13.812;2023-03-21T15:04:57;2.55;;;1.50;;
21729;SDS011;11027;51.030;13.812;2023-03-21T15:07:30;3.58;;;1.75;;
21729;SDS011;11027;51.030;13.812;2023-03-21T15:09:58;4.00;;;1.88;;
21729;SDS011;11027;51.030;13.812;2023-03-21T15:12:27;1.77;;;1.50;;
21729;SDS011;11027;51.030;13.812;2023-03-21T15:14:52;3.38;;;1.88;;
21729;SDS011;11027;51.030;13.812;2023-03-21T15:17:18;2.35;;;1.70;;
21729;SDS011;11027;51.030;13.812;2023-03-21T15:19:44;5.80;;;1.58;;
21729;SDS011;11027;51.030;13.812;2023-03-21T15:22:26;5.75;;;1.77;;
21729;SDS011;11027;51.030;13.812;2023-03-21T15:24:58;2.47;;;1.50;;
21729;SDS011;11027;51.030;13.812;2023-03-21T15:27:27;1.92;;;1.55;;
21729;SDS011;11027;51.030;13.812;2023-03-21T15:29:56;3.08;;;1.65;;
21729;SDS011;11027;51.030;13.812;2023-03-21T15:32:23;3.28;;;1.42;;
21729;SDS011;11027;51.030;13.812;2023-03-21T15:34:52;4.78;;;1.75;;
21729;SDS011;11027;51.030;13.812;2023-03-21T15:37:21;4.63;;;1.70;;
21729;SDS011;11027;51.030;13.812;2023-03-21T15:39:51;3.70;;;1.50;;
21729;SDS011;11027;51.030;13.812;2023-03-21T15:42:23;2.03;;;1.83;;
21729;SDS011;11027;51.030;13.812;2023-03-21T15:44:51;1.92;;;1.67;;
21729;SDS011;11027;51.030;13.812;2023-03-21T15:47:37;3.05;;;1.65;;
21729;SDS011;11027;51.030;13.812;2023-03-21T15:50:07;2.10;;;1.70;;
21729;SDS011;11027;51.030;13.812;2023-03-21T15:52:35;2.80;;;1.52;;
21729;SDS011;11027;51.030;13.812;2023-03-21T15:55:01;2.67;;;1.40;;
21729;SDS011;11027;51.030;13.812;2023-03-21T15:57:41;1.92;;;1.60;;
21729;SDS011;11027;51.030;13.812;2023-03-21T16:00:17;2.17;;;1.42;;
21729;SDS011;11027;51.030;13.812;2023-03-21T16:02:46;3.80;;;1.65;;
21729;SDS011;11027;51.030;13.812;2023-03-21T16:05:21;3.00;;;1.63;;
21729;SDS011;11027;51.030;13.812;2023-03-21T16:07:47;2.30;;;1.70;;
21729;SDS011;11027;51.030;13.812;2023-03-21T16:10:27;4.20;;;1.90;;
21729;SDS011;11027;51.030;13.812;2023-03-21T16:12:57;2.30;;;1.60;;
21729;SDS011;11027;51.030;13.812;2023-03-21T16:15:23;3.65;;;1.60;;
21729;SDS011;11027;51.030;13.812;2023-03-21T16:17:51;4.45;;;1.50;;